Terminal Aerodrome Forecast
Issued by NWS

Home | Current Version | Previous Version | Text Only | Print | Product List | Glossary On
Versions: 1 2 3 4 5 6 7 8 9 10 11 12 13 14 15 16 17 18 19
000
FTUS46 KMFR 230200 AAA
TAFLMT
TAF AMD
KLMT 230245Z 2303/2324 18015KT P6SM -SHRA SCT040 BKN080 OVC100
     FM230600 17012KT P6SM -RA SCT030 BKN040 OVC080
     FM231000 19012G19KT P6SM -RA SCT015 BKN025 OVC040
     FM231800 22014G22KT P6SM -SHRA SCT025 BKN035 BKN050=

USA.gov is the U.S. government's official web portal to all federal, state and local government web resources and services.